Time;durP1;ratioP1;P1;durP2;ratioP2;P2;SDS_P1;SDS_P2;PMS_P1;PMS_P2;Temp;Humidity;BMP_temperature;BMP_pressure;BME280_temperature;BME280_humidity;BME280_pressure;Samples;Min_cycle;Max_cycle;Signal;HPM_P1;HPM_P2
2022/03/14 00:01:38;;;;;;;13.07;8.65;;;15.00;70.10;;;;;;5033804;28;20453;-64
2022/03/14 00:04:04;;;;;;;12.48;8.18;;;15.10;67.30;;;;;;5034460;28;20057;-64
2022/03/14 00:06:30;;;;;;;12.32;8.00;;;;;;;;;;5036318;28;20095;-65
2022/03/14 00:08:57;;;;;;;11.02;7.85;;;14.90;67.20;;;;;;5044535;28;20102;-64
2022/03/14 00:11:29;;;;;;;12.13;8.13;;;14.90;68.70;;;;;;5034197;28;20033;-62
2022/03/14 00:13:56;;;;;;;11.68;8.60;;;14.80;70.00;;;;;;5034430;28;20114;-62
2022/03/14 00:16:23;;;;;;;13.10;8.27;;;14.80;69.80;;;;;;5016720;28;20049;-65
2022/03/14 00:18:50;;;;;;;11.15;7.93;;;15.00;70.00;;;;;;5034342;28;20050;-61
2022/03/14 00:21:18;;;;;;;11.57;8.25;;;15.00;70.00;;;;;;5033992;28;20041;-64
2022/03/14 00:23:45;;;;;;;10.48;7.55;;;;;;;;;;5033806;28;20041;-64
2022/03/14 00:26:11;;;;;;;12.48;8.55;;;15.00;67.40;;;;;;5034112;28;20049;-65
2022/03/14 00:28:37;;;;;;;11.43;8.18;;;14.60;69.80;;;;;;5034423;28;20072;-64
2022/03/14 00:31:03;;;;;;;11.52;8.30;;;14.80;69.90;;;;;;5016631;28;20472;-64
2022/03/14 00:33:29;;;;;;;10.85;7.80;;;15.00;70.10;;;;;;5034105;28;20056;-62
2022/03/14 00:35:56;;;;;;;10.60;7.93;;;14.90;70.00;;;;;;5033894;28;20491;-64
2022/03/14 00:38:24;;;;;;;12.25;8.10;;;15.20;70.20;;;;;;5015340;28;20111;-64
2022/03/14 00:40:51;;;;;;;11.77;8.13;;;15.00;70.00;;;;;;5033555;28;20053;-64
2022/03/14 00:43:17;;;;;;;12.23;8.43;;;15.10;70.20;;;;;;5033120;28;20085;-65
2022/03/14 00:45:43;;;;;;;12.00;8.48;;;15.00;70.50;;;;;;5033278;28;20049;-65
2022/03/14 00:48:09;;;;;;;10.88;7.82;;;14.90;70.10;;;;;;5033658;28;20415;-66
2022/03/14 00:50:35;;;;;;;11.10;8.25;;;15.20;67.50;;;;;;5033454;28;20049;-64
2022/03/14 00:53:01;;;;;;;10.93;7.70;;;15.00;70.10;;;;;;5032739;28;20041;-64
2022/03/14 00:55:27;;;;;;;10.80;7.82;;;;;;;;;;5015516;28;20044;-63
2022/03/14 00:57:53;;;;;;;12.10;7.88;;;15.20;67.60;;;;;;5033030;28;20056;-64
2022/03/14 01:00:18;;;;;;;11.55;8.32;;;15.10;70.20;;;;;;5015962;28;20049;-65
2022/03/14 01:02:48;;;;;;;11.32;8.05;;;15.00;67.50;;;;;;5032543;28;20077;-64
2022/03/14 01:05:14;;;;;;;11.32;8.45;;;14.90;70.20;;;;;;5033539;28;20392;-64
2022/03/14 01:07:40;;;;;;;11.48;8.55;;;15.10;70.30;;;;;;5032321;28;20053;-65
2022/03/14 01:10:06;;;;;;;11.95;7.75;;;15.20;67.70;;;;;;5033012;28;20045;-64
2022/03/14 01:12:32;;;;;;;13.38;8.20;;;15.00;70.20;;;;;;5035733;28;20041;-65
2022/03/14 01:14:58;;;;;;;12.18;7.80;;;14.70;70.30;;;;;;5039060;28;20033;-64
2022/03/14 01:17:24;;;;;;;11.75;7.93;;;14.90;70.20;;;;;;5032927;28;20124;-64
2022/03/14 01:19:49;;;;;;;11.68;8.10;;;15.10;70.50;;;;;;5032874;28;20458;-64
2022/03/14 01:22:15;;;;;;;11.95;8.23;;;15.10;70.50;;;;;;5015369;28;20092;-64
2022/03/14 01:24:43;;;;;;;12.50;8.68;;;15.00;70.30;;;;;;5032795;28;20049;-64
2022/03/14 01:27:09;;;;;;;10.85;8.30;;;14.80;67.60;;;;;;5015703;28;20033;-64
2022/03/14 01:29:35;;;;;;;12.32;8.23;;;15.00;70.30;;;;;;5032652;28;20031;-64
2022/03/14 01:32:05;;;;;;;12.93;8.65;;;15.20;70.50;;;;;;5032887;28;20487;-64
2022/03/14 01:34:31;;;;;;;12.82;8.77;;;15.10;70.40;;;;;;5033558;28;20487;-64
2022/03/14 01:36:57;;;;;;;12.82;8.68;;;15.10;70.40;;;;;;5015551;28;20069;-64
2022/03/14 01:39:23;;;;;;;13.02;8.52;;;15.10;70.60;;;;;;4985076;28;20102;-65
2022/03/14 01:41:49;;;;;;;14.05;8.90;;;15.00;70.40;;;;;;5033547;28;20045;-65
2022/03/14 01:44:14;;;;;;;11.48;8.30;;;15.00;70.40;;;;;;5003044;28;20495;-64
2022/03/14 01:46:41;;;;;;;12.82;8.70;;;15.00;67.70;;;;;;4995724;28;20403;-64
2022/03/14 01:49:07;;;;;;;11.57;8.35;;;15.10;70.50;;;;;;5011928;28;20053;-64
2022/03/14 01:51:34;;;;;;;11.77;8.00;;;14.80;67.70;;;;;;5015067;28;20053;-64
2022/03/14 01:54:00;;;;;;;12.50;8.70;;;15.00;70.50;;;;;;5033204;28;20121;-65
2022/03/14 01:56:26;;;;;;;14.30;8.52;;;15.00;70.60;;;;;;5015179;28;20057;-64
2022/03/14 01:58:52;;;;;;;12.98;8.75;;;15.00;67.80;;;;;;5015546;28;20042;-64
2022/03/14 02:01:21;;;;;;;11.73;8.20;;;15.10;70.50;;;;;;4983928;28;20045;-64
2022/03/14 02:03:50;;;;;;;12.82;8.43;;;15.20;70.60;;;;;;4999350;28;20140;-64
2022/03/14 02:06:16;;;;;;;11.82;8.35;;;14.70;70.40;;;;;;5032995;28;20053;-64
2022/03/14 02:08:41;;;;;;;12.05;8.57;;;15.20;71.00;;;;;;5033152;28;20049;-65
2022/03/14 02:11:07;;;;;;;10.65;7.72;;;;;;;;;;5032806;28;20037;-66
2022/03/14 02:13:33;;;;;;;13.75;8.82;;;14.90;70.50;;;;;;5032028;28;20437;-64
2022/03/14 02:15:59;;;;;;;12.25;8.88;;;14.90;67.90;;;;;;5032943;28;20049;-64
2022/03/14 02:18:25;;;;;;;13.45;9.23;;;15.00;70.60;;;;;;5033991;28;20053;-64
2022/03/14 02:20:51;;;;;;;11.77;8.50;;;15.30;71.00;;;;;;5043543;28;20048;-65
2022/03/14 02:23:17;;;;;;;12.73;8.85;;;14.80;70.60;;;;;;5036154;28;20104;-64
2022/03/14 02:25:49;;;;;;;12.85;8.45;;;15.10;70.80;;;;;;5036611;28;20041;-64
2022/03/14 02:28:16;;;;;;;14.20;9.15;;;15.10;71.00;;;;;;5036961;28;20045;-64
2022/03/14 02:30:42;;;;;;;12.25;8.55;;;15.10;67.40;;;;;;5036472;28;20048;-65
2022/03/14 02:33:09;;;;;;;12.35;8.50;;;15.00;71.00;;;;;;5024126;28;20100;-65
2022/03/14 02:35:38;;;;;;;13.10;9.57;;;14.90;71.10;;;;;;5036650;28;20037;-65
2022/03/14 02:38:03;;;;;;;14.85;8.98;;;15.00;71.50;;;;;;5036631;28;20102;-64
2022/03/14 02:40:29;;;;;;;12.13;9.30;;;15.00;71.50;;;;;;5036331;28;20088;-64
2022/03/14 02:42:55;;;;;;;14.13;8.77;;;15.30;71.50;;;;;;5034701;28;20050;-64
2022/03/14 02:45:21;;;;;;;13.10;8.75;;;14.80;71.60;;;;;;5036172;28;20118;-66
2022/03/14 02:47:47;;;;;;;12.75;8.70;;;15.00;71.50;;;;;;5036378;28;20124;-66
2022/03/14 02:50:12;;;;;;;12.40;8.43;;;14.80;71.50;;;;;;5035947;28;20179;-64
2022/03/14 02:52:38;;;;;;;13.10;9.02;;;15.10;69.10;;;;;;5036369;28;20042;-65
2022/03/14 02:55:06;;;;;;;14.35;8.98;;;15.10;72.00;;;;;;5036124;28;20412;-64
2022/03/14 02:57:32;;;;;;;13.35;9.00;;;15.10;71.80;;;;;;5036412;28;20046;-67
2022/03/14 02:59:57;;;;;;;12.98;8.77;;;14.90;71.70;;;;;;5036260;28;20059;-64
2022/03/14 03:02:24;;;;;;;12.93;8.70;;;15.00;71.70;;;;;;5035186;28;20148;-65
2022/03/14 03:04:51;;;;;;;12.00;7.82;;;14.70;69.10;;;;;;5035824;28;20124;-65
2022/03/14 03:07:19;;;;;;;13.25;8.38;;;14.90;71.70;;;;;;5036138;28;20038;-64
2022/03/14 03:09:45;;;;;;;10.52;7.72;;;15.10;69.30;;;;;;5035932;28;20045;-64
2022/03/14 03:12:14;;;;;;;12.10;8.43;;;15.10;71.80;;;;;;5035268;28;20072;-64
2022/03/14 03:14:40;;;;;;;11.48;8.18;;;15.00;72.00;;;;;;5034582;28;20053;-65
2022/03/14 03:17:06;;;;;;;11.10;7.70;;;15.20;71.80;;;;;;5035733;28;20041;-64
2022/03/14 03:19:33;;;;;;;12.60;8.52;;;;;;;;;;5035879;28;20457;-64
2022/03/14 03:21:59;;;;;;;11.32;8.15;;;;;;;;;;5035519;28;20045;-64
2022/03/14 03:24:25;;;;;;;12.13;8.80;;;15.00;71.80;;;;;;5035586;28;20045;-63
2022/03/14 03:26:51;;;;;;;12.13;8.13;;;15.10;72.10;;;;;;5035653;28;20038;-64
2022/03/14 03:29:17;;;;;;;11.15;7.88;;;;;;;;;;5035724;28;20567;-65
2022/03/14 03:31:42;;;;;;;11.60;7.93;;;15.20;71.90;;;;;;5047754;28;20041;-64
2022/03/14 03:34:08;;;;;;;11.65;8.45;;;15.20;72.00;;;;;;5034913;28;20042;-65
2022/03/14 03:36:34;;;;;;;10.85;7.13;;;14.90;71.90;;;;;;5036230;28;20112;-64
2022/03/14 03:39:00;;;;;;;13.40;7.90;;;15.00;72.00;;;;;;5033830;28;20095;-65
2022/03/14 03:41:26;;;;;;;11.07;7.80;;;15.10;69.40;;;;;;5035566;28;20092;-64
2022/03/14 03:43:52;;;;;;;11.75;7.70;;;15.10;72.00;;;;;;5034698;28;20530;-66
2022/03/14 03:46:17;;;;;;;11.27;7.97;;;15.30;72.40;;;;;;5035503;28;20049;-65
2022/03/14 03:48:43;;;;;;;9.70;6.97;;;15.30;72.20;;;;;;5035371;28;20471;-65
2022/03/14 03:51:09;;;;;;;11.57;7.80;;;15.00;72.20;;;;;;5035369;28;20395;-64
2022/03/14 03:53:35;;;;;;;11.30;8.07;;;15.40;69.80;;;;;;5035380;28;20380;-65
2022/03/14 03:56:00;;;;;;;10.95;7.35;;;15.00;72.50;;;;;;5034890;28;20454;-64
2022/03/14 03:58:26;;;;;;;10.70;7.25;;;15.10;69.80;;;;;;5034872;28;20482;-65
2022/03/14 04:00:52;;;;;;;10.18;7.18;;;15.00;72.20;;;;;;5035051;28;20124;-65
2022/03/14 04:03:21;;;;;;;11.27;8.18;;;15.30;72.50;;;;;;5035132;28;20085;-64
2022/03/14 04:05:47;;;;;;;11.13;7.57;;;15.30;70.00;;;;;;5034376;28;20507;-64
2022/03/14 04:08:14;;;;;;;10.15;7.00;;;;;;;;;;5034944;28;20041;-64
2022/03/14 04:10:40;;;;;;;10.18;7.25;;;14.90;69.80;;;;;;5035032;28;20376;-64
2022/03/14 04:13:07;;;;;;;11.95;7.53;;;15.20;72.60;;;;;;5034735;28;20053;-64
2022/03/14 04:15:40;;;;;;;10.82;6.82;;;15.20;72.70;;;;;;5034451;28;20038;-65
2022/03/14 04:18:07;;;;;;;12.38;7.28;;;15.30;72.80;;;;;;5034702;28;20059;-64
2022/03/14 04:20:32;;;;;;;10.10;6.97;;;15.50;73.00;;;;;;5034783;28;20049;-64
2022/03/14 04:22:59;;;;;;;9.00;7.32;;;;;;;;;;5034478;28;20111;-63
2022/03/14 04:25:24;;;;;;;10.32;6.90;;;15.10;73.10;;;;;;5033604;28;20080;-64
2022/03/14 04:27:51;;;;;;;10.18;6.70;;;15.40;73.50;;;;;;5027812;28;20136;-62
2022/03/14 04:30:16;;;;;;;9.93;7.20;;;15.30;73.60;;;;;;5034362;28;20614;-62
2022/03/14 04:32:43;;;;;;;11.75;6.97;;;15.20;73.30;;;;;;5034568;28;20076;-62
2022/03/14 04:35:09;;;;;;;10.90;6.55;;;15.20;73.50;;;;;;5034122;28;20044;-62
2022/03/14 04:37:35;;;;;;;12.48;6.68;;;15.10;73.60;;;;;;5033734;28;20042;-62
2022/03/14 04:40:03;;;;;;;10.75;6.93;;;15.30;73.60;;;;;;5017428;28;20503;-62
2022/03/14 04:42:30;;;;;;;9.70;6.38;;;;;;;;;;5045033;28;20132;-62
2022/03/14 04:44:55;;;;;;;9.45;6.53;;;15.20;73.90;;;;;;5033503;28;20152;-62
2022/03/14 04:47:21;;;;;;;9.95;6.88;;;15.20;73.90;;;;;;5033615;28;20069;-61
2022/03/14 04:49:47;;;;;;;9.05;6.78;;;15.10;73.80;;;;;;5034053;28;20072;-62
2022/03/14 04:52:13;;;;;;;9.48;6.38;;;15.10;74.10;;;;;;5033899;28;20045;-63
2022/03/14 04:54:39;;;;;;;9.52;6.32;;;15.00;71.20;;;;;;5033917;28;20099;-62
2022/03/14 04:57:05;;;;;;;9.02;6.45;;;;;;;;;;5016187;28;20053;-61
2022/03/14 04:59:31;;;;;;;9.57;6.43;;;15.00;71.20;;;;;;5033602;28;20087;-62
2022/03/14 05:01:57;;;;;;;8.65;6.07;;;15.00;73.80;;;;;;5033770;28;20077;-62
2022/03/14 05:04:23;;;;;;;8.48;5.90;;;15.20;74.10;;;;;;5034051;28;20046;-62
2022/03/14 05:06:48;;;;;;;9.35;6.18;;;14.90;73.60;;;;;;5033572;28;20041;-62
2022/03/14 05:09:14;;;;;;;9.85;6.57;;;15.30;73.60;;;;;;5033329;28;20137;-62
2022/03/14 05:11:40;;;;;;;8.95;6.10;;;;;;;;;;5033921;28;20091;-62
2022/03/14 05:14:08;;;;;;;8.70;5.82;;;15.20;74.00;;;;;;5033565;28;20049;-62
2022/03/14 05:16:34;;;;;;;9.25;6.07;;;15.00;74.10;;;;;;5033882;28;20045;-63
2022/03/14 05:19:01;;;;;;;8.93;6.00;;;;;;;;;;5032419;28;20156;-62
2022/03/14 05:21:26;;;;;;;8.95;5.97;;;15.00;73.90;;;;;;5033408;28;20570;-62
2022/03/14 05:23:52;;;;;;;9.50;6.40;;;15.40;74.20;;;;;;5033343;28;20119;-62
2022/03/14 05:26:18;;;;;;;9.10;6.00;;;15.30;74.30;;;;;;5032574;28;20045;-63
2022/03/14 05:28:44;;;;;;;8.85;6.18;;;15.30;74.50;;;;;;5034027;28;20207;-62
2022/03/14 05:31:09;;;;;;;8.85;6.05;;;15.40;74.50;;;;;;5033229;28;20438;-62
2022/03/14 05:33:35;;;;;;;9.15;5.88;;;14.90;74.00;;;;;;5032989;28;20073;-62
2022/03/14 05:36:01;;;;;;;8.93;6.13;;;15.20;74.30;;;;;;5033644;28;20037;-62
2022/03/14 05:38:28;;;;;;;8.60;6.15;;;14.80;74.20;;;;;;5033398;28;20041;-63
2022/03/14 05:40:55;;;;;;;9.68;6.18;;;15.20;74.40;;;;;;5033002;28;20907;-63
2022/03/14 05:43:21;;;;;;;9.98;6.35;;;15.40;72.20;;;;;;5015568;28;20079;-62
2022/03/14 05:45:47;;;;;;;9.02;6.10;;;15.30;74.60;;;;;;5016756;28;20049;-61
2022/03/14 05:48:13;;;;;;;9.25;5.68;;;15.40;75.10;;;;;;5045824;28;20382;-62
2022/03/14 05:50:39;;;;;;;9.40;6.00;;;15.20;74.80;;;;;;5053401;28;20116;-62
2022/03/14 05:53:05;;;;;;;10.77;6.22;;;15.40;75.20;;;;;;5037793;28;20045;-62
2022/03/14 05:55:30;;;;;;;10.25;5.78;;;15.10;72.50;;;;;;5015344;28;20061;-61
2022/03/14 05:57:56;;;;;;;7.32;5.13;;;15.20;75.10;;;;;;5036626;28;20045;-62
2022/03/14 06:00:25;;;;;;;8.95;6.13;;;15.20;72.80;;;;;;5003594;28;20084;-61
2022/03/14 06:02:54;;;;;;;7.47;4.97;;;15.00;75.20;;;;;;5022053;28;20057;-61
2022/03/14 06:05:21;;;;;;;8.02;5.72;;;15.50;75.90;;;;;;5037037;28;20045;-61
2022/03/14 06:07:47;;;;;;;10.38;5.55;;;15.10;73.00;;;;;;5035777;28;20554;-63
2022/03/14 06:10:15;;;;;;;8.68;5.55;;;15.20;75.50;;;;;;5035636;28;20171;-62
2022/03/14 06:12:41;;;;;;;8.25;5.90;;;14.90;71.30;;;;;;5036945;28;20447;-63
2022/03/14 06:15:09;;;;;;;8.77;5.30;;;15.10;75.80;;;;;;5037326;28;20085;-62
2022/03/14 06:17:35;;;;;;;9.18;5.65;;;;;;;;;;5037113;28;20128;-62
2022/03/14 06:20:02;;;;;;;8.20;5.03;;;;;;;;;;5037017;28;20088;-62
2022/03/14 06:22:27;;;;;;;8.75;5.28;;;15.10;76.00;;;;;;5036660;28;20048;-62
2022/03/14 06:24:53;;;;;;;8.30;5.15;;;15.50;76.80;;;;;;5036292;28;20054;-62
2022/03/14 06:27:20;;;;;;;8.45;5.32;;;15.40;76.60;;;;;;5035632;28;20076;-62
2022/03/14 06:29:46;;;;;;;7.85;5.10;;;15.10;76.90;;;;;;5036255;28;20077;-61
2022/03/14 06:32:12;;;;;;;7.20;4.70;;;15.20;76.90;;;;;;5036786;28;20073;-64
2022/03/14 06:34:38;;;;;;;8.63;5.15;;;15.20;76.50;;;;;;5036024;28;20455;-61
2022/03/14 06:37:06;;;;;;;6.95;5.00;;;15.20;76.70;;;;;;5035247;28;20052;-62
2022/03/14 06:39:32;;;;;;;8.77;5.28;;;15.10;77.00;;;;;;5036576;28;20123;-62
2022/03/14 06:41:58;;;;;;;7.63;5.07;;;15.10;76.70;;;;;;5036634;28;20364;-61
2022/03/14 06:44:27;;;;;;;8.77;5.15;;;;;;;;;;5036395;28;20053;-62
2022/03/14 06:46:54;;;;;;;8.10;5.00;;;15.10;77.10;;;;;;5036109;28;20045;-62
2022/03/14 06:49:21;;;;;;;8.52;4.65;;;;;;;;;;5018980;28;20388;-62
2022/03/14 06:51:47;;;;;;;6.95;4.88;;;;;;;;;;5037520;28;20037;-62
2022/03/14 06:54:14;;;;;;;7.10;4.40;;;;;;;;;;5047185;28;20431;-61
2022/03/14 06:56:43;;;;;;;7.90;5.05;;;;;;;;;;5035829;28;20041;-64
2022/03/14 06:59:09;;;;;;;8.00;4.53;;;15.20;77.80;;;;;;5018064;28;20045;-64
2022/03/14 07:01:35;;;;;;;6.80;4.75;;;15.10;75.30;;;;;;5036364;28;20042;-65
2022/03/14 07:04:02;;;;;;;8.15;4.85;;;;;;;;;;5035927;28;20034;-62
2022/03/14 07:06:28;;;;;;;6.97;4.35;;;15.00;77.80;;;;;;5018057;28;20049;-62
2022/03/14 07:08:54;;;;;;;7.60;4.57;;;15.30;78.00;;;;;;5035190;28;20065;-63
2022/03/14 07:11:20;;;;;;;7.70;4.70;;;15.40;78.40;;;;;;5035756;28;20053;-62
2022/03/14 07:13:46;;;;;;;6.90;4.55;;;;;;;;;;5036122;28;20045;-63
2022/03/14 07:16:12;;;;;;;7.15;4.18;;;15.30;78.20;;;;;;5036063;28;20041;-66
2022/03/14 07:18:37;;;;;;;7.18;4.72;;;15.20;76.10;;;;;;5035507;28;20041;-62
2022/03/14 07:21:03;;;;;;;8.70;4.45;;;15.10;78.40;;;;;;5032796;28;20475;-62
2022/03/14 07:23:29;;;;;;;7.93;4.35;;;15.20;78.80;;;;;;5035515;28;20461;-62
2022/03/14 07:25:55;;;;;;;8.80;4.53;;;;;;;;;;5035598;28;20045;-62
2022/03/14 07:28:21;;;;;;;8.05;4.38;;;15.20;78.50;;;;;;5035690;28;20049;-65
2022/03/14 07:30:47;;;;;;;6.03;3.70;;;15.20;76.60;;;;;;5035463;28;20175;-67
2022/03/14 07:33:12;;;;;;;6.03;3.95;;;15.20;78.80;;;;;;5035475;28;20057;-64
2022/03/14 07:35:38;;;;;;;6.80;4.25;;;15.30;79.10;;;;;;5035698;28;20046;-64
2022/03/14 07:38:04;;;;;;;6.40;3.90;;;;;;;;;;5030216;28;20052;-66
2022/03/14 07:40:31;;;;;;;6.22;4.10;;;15.50;79.20;;;;;;5033917;28;20123;-64
2022/03/14 07:42:58;;;;;;;8.27;4.10;;;14.90;76.80;;;;;;5034208;28;20052;-66
2022/03/14 07:45:24;;;;;;;7.18;4.25;;;15.30;79.20;;;;;;5035008;28;20119;-65
2022/03/14 07:47:51;;;;;;;5.50;3.28;;;15.30;79.20;;;;;;5032954;28;20045;-62
2022/03/14 07:50:17;;;;;;;6.82;4.20;;;15.40;79.10;;;;;;5034304;28;20045;-62
2022/03/14 07:52:43;;;;;;;6.65;3.70;;;15.60;79.50;;;;;;5031926;28;20124;-61
2022/03/14 07:55:10;;;;;;;7.10;4.00;;;15.50;79.80;;;;;;5033839;28;20120;-61
2022/03/14 07:57:36;;;;;;;6.18;3.50;;;15.40;79.50;;;;;;5026612;28;20053;-61
2022/03/14 08:00:11;;;;;;;6.10;3.50;;;15.20;79.60;;;;;;5031468;28;20052;-61
2022/03/14 08:02:38;;;;;;;5.63;3.47;;;15.30;79.80;;;;;;5033595;28;20042;-61
2022/03/14 08:05:05;;;;;;;5.85;3.47;;;15.40;79.70;;;;;;5033153;28;20119;-61
2022/03/14 08:07:32;;;;;;;6.40;3.78;;;15.40;77.60;;;;;;5034532;28;20125;-62
2022/03/14 08:09:58;;;;;;;6.15;3.83;;;14.90;79.50;;;;;;5016959;28;20095;-61
2022/03/14 08:12:24;;;;;;;5.55;3.60;;;;;;;;;;5033820;28;20096;-68
2022/03/14 08:14:50;;;;;;;6.13;3.40;;;15.10;79.50;;;;;;5034097;28;20046;-61
2022/03/14 08:17:18;;;;;;;5.60;3.42;;;15.30;80.00;;;;;;5029067;28;20092;-62
2022/03/14 08:19:44;;;;;;;7.28;3.63;;;15.30;80.70;;;;;;5015886;28;20458;-61
2022/03/14 08:22:11;;;;;;;6.32;3.45;;;;;;;;;;5034806;28;20450;-61
2022/03/14 08:24:37;;;;;;;5.63;3.50;;;15.50;80.40;;;;;;5033940;28;20090;-61
2022/03/14 08:27:03;;;;;;;5.97;3.55;;;15.10;80.20;;;;;;5034769;28;20073;-61
2022/03/14 08:29:29;;;;;;;6.35;3.50;;;15.30;80.30;;;;;;5034092;28;20439;-62
2022/03/14 08:31:58;;;;;;;6.00;3.33;;;15.50;80.60;;;;;;5016691;28;20103;-61
2022/03/14 08:34:24;;;;;;;6.00;3.53;;;15.30;82.10;;;;;;4998951;28;20053;-61
2022/03/14 08:36:49;;;;;;;7.72;3.92;;;15.30;83.30;;;;;;5033066;28;20041;-61
2022/03/14 08:39:15;;;;;;;5.78;3.88;;;15.20;83.10;;;;;;5033712;28;20136;-62
2022/03/14 08:41:41;;;;;;;6.47;3.90;;;;;;;;;;5016851;28;20048;-61
2022/03/14 08:44:07;;;;;;;6.78;4.20;;;15.10;85.20;;;;;;5016550;28;20407;-61
2022/03/14 08:46:34;;;;;;;5.88;3.92;;;15.00;85.70;;;;;;5033149;28;20049;-61
2022/03/14 08:49:01;;;;;;;7.75;4.13;;;14.50;85.40;;;;;;5031016;28;20050;-61
2022/03/14 08:51:27;;;;;;;6.60;4.05;;;14.80;85.50;;;;;;5034274;28;20395;-62
2022/03/14 08:53:53;;;;;;;7.20;4.57;;;15.00;85.90;;;;;;5031831;28;20059;-61
2022/03/14 08:56:18;;;;;;;6.85;4.40;;;14.80;84.70;;;;;;5033092;28;20044;-61
2022/03/14 08:58:44;;;;;;;17.60;4.57;;;14.70;86.70;;;;;;5033131;28;20041;-61
2022/03/14 09:01:11;;;;;;;9.57;4.63;;;14.90;88.00;;;;;;5033126;28;20057;-62
2022/03/14 09:03:37;;;;;;;7.10;4.25;;;14.90;86.90;;;;;;5034825;28;20080;-62
2022/03/14 09:06:03;;;;;;;7.47;4.68;;;;;;;;;;5032131;28;20104;-61
2022/03/14 09:08:29;;;;;;;6.80;4.50;;;15.00;87.40;;;;;;5014167;28;20042;-61
2022/03/14 09:10:55;;;;;;;6.93;4.47;;;14.20;86.20;;;;;;4996004;28;20054;-65
2022/03/14 09:13:23;;;;;;;6.22;4.38;;;14.60;88.80;;;;;;5032823;28;20419;-62
2022/03/14 09:15:49;;;;;;;6.88;4.50;;;14.70;88.10;;;;;;5033936;28;20434;-62
2022/03/14 09:18:15;;;;;;;6.45;4.15;;;;;;;;;;5032653;28;20128;-61
2022/03/14 09:20:42;;;;;;;8.15;4.15;;;;;;;;;;5015568;28;20051;-62
2022/03/14 09:23:10;;;;;;;8.30;3.97;;;;;;;;;;5030531;28;20448;-61
2022/03/14 09:25:36;;;;;;;6.35;4.38;;;14.60;85.10;;;;;;5033387;28;20045;-65
2022/03/14 09:28:02;;;;;;;6.57;3.70;;;14.80;86.60;;;;;;5030559;28;20046;-65
2022/03/14 09:30:28;;;;;;;7.03;3.92;;;15.20;87.00;;;;;;5021995;28;20148;-62
2022/03/14 09:32:54;;;;;;;6.47;3.80;;;15.10;86.50;;;;;;5024102;28;20049;-61
2022/03/14 09:35:21;;;;;;;6.13;3.97;;;15.00;86.30;;;;;;5018830;28;20045;-64
2022/03/14 09:37:47;;;;;;;7.53;3.80;;;;;;;;;;5032317;28;20045;-62
2022/03/14 09:40:18;;;;;;;7.82;3.83;;;15.30;85.90;;;;;;5030737;28;20042;-62
2022/03/14 09:42:48;;;;;;;6.78;3.97;;;15.10;86.10;;;;;;5031178;28;20050;-61
2022/03/14 09:45:15;;;;;;;6.50;3.70;;;15.10;83.50;;;;;;5032963;28;20140;-62
2022/03/14 09:48:01;;;;;;;5.85;3.58;;;;;;;;;;5032335;28;20142;-62
2022/03/14 09:50:34;;;;;;;5.97;3.67;;;15.30;85.60;;;;;;5030316;28;20038;-61
2022/03/14 09:53:04;;;;;;;5.10;3.30;;;15.20;85.70;;;;;;5025311;28;20045;-61
2022/03/14 09:55:29;;;;;;;5.20;3.35;;;15.40;85.50;;;;;;5012598;28;20041;-65
2022/03/14 09:57:55;;;;;;;6.28;3.80;;;15.20;85.30;;;;;;5031102;28;20483;-63
2022/03/14 10:00:21;;;;;;;5.85;3.33;;;15.10;82.80;;;;;;5033383;28;20091;-62
2022/03/14 10:02:47;;;;;;;5.82;3.67;;;;;;;;;;5033273;28;20042;-64
2022/03/14 10:05:14;;;;;;;5.50;3.53;;;15.30;83.00;;;;;;5033407;28;20395;-61
2022/03/14 10:07:42;;;;;;;6.43;3.45;;;15.60;85.20;;;;;;5032838;28;20038;-61
2022/03/14 10:10:08;;;;;;;6.65;3.50;;;15.30;85.10;;;;;;5018361;28;20084;-61
2022/03/14 10:12:34;;;;;;;10.65;3.47;;;15.60;85.50;;;;;;5032805;28;20057;-65
2022/03/14 10:15:01;;;;;;;9.40;3.88;;;15.50;84.80;;;;;;5011674;28;20054;-62
2022/03/14 10:17:27;;;;;;;6.50;4.05;;;15.20;84.70;;;;;;5013784;28;20049;-61
2022/03/14 10:19:54;;;;;;;5.88;3.50;;;15.60;85.00;;;;;;5032228;28;20049;-63
2022/03/14 10:22:20;;;;;;;5.60;3.67;;;15.30;85.00;;;;;;5033098;28;20064;-62
2022/03/14 10:24:48;;;;;;;5.88;3.60;;;15.70;81.00;;;;;;5032347;28;20054;-61
2022/03/14 10:27:19;;;;;;;7.05;4.18;;;15.60;84.70;;;;;;5031891;28;20033;-62
2022/03/14 10:29:49;;;;;;;6.65;3.63;;;15.70;80.40;;;;;;5032528;28;20042;-61
2022/03/14 10:32:31;;;;;;;5.55;3.45;;;15.20;81.40;;;;;;5032556;28;20049;-63
2022/03/14 10:35:07;;;;;;;6.88;3.45;;;15.50;81.80;;;;;;5032183;28;20053;-62
2022/03/14 10:37:34;;;;;;;5.32;3.50;;;15.80;84.80;;;;;;5024819;28;20049;-62
2022/03/14 10:40:05;;;;;;;7.45;3.58;;;15.80;80.90;;;;;;5031598;28;20084;-63
2022/03/14 10:42:43;;;;;;;7.43;3.72;;;15.70;84.50;;;;;;5033427;28;20434;-64
2022/03/14 10:45:15;;;;;;;7.70;3.50;;;15.90;84.90;;;;;;5036044;28;20050;-64
2022/03/14 10:47:54;;;;;;;6.10;3.40;;;15.60;84.60;;;;;;5027654;28;20496;-64
2022/03/14 10:50:33;;;;;;;7.55;3.53;;;15.60;84.50;;;;;;5015240;28;20038;-64
2022/03/14 10:53:10;;;;;;;6.38;3.55;;;15.70;84.40;;;;;;5016262;28;20049;-64
2022/03/14 10:55:46;;;;;;;5.93;3.35;;;15.80;85.00;;;;;;5016351;28;20038;-63
2022/03/14 10:58:11;;;;;;;5.70;3.20;;;15.60;82.10;;;;;;5016317;28;20121;-63
2022/03/14 11:00:54;;;;;;;6.05;3.88;;;15.70;84.40;;;;;;5016126;28;20128;-62
2022/03/14 11:03:21;;;;;;;5.03;3.35;;;15.60;84.40;;;;;;5016251;28;20045;-62
2022/03/14 11:05:47;;;;;;;5.30;3.28;;;15.80;84.30;;;;;;5032399;28;20051;-65
2022/03/14 11:08:31;;;;;;;6.47;3.38;;;15.80;84.30;;;;;;5035652;28;20037;-62
2022/03/14 11:10:58;;;;;;;6.40;3.65;;;15.70;84.20;;;;;;5035700;28;20049;-67
2022/03/14 11:13:24;;;;;;;6.90;3.70;;;15.70;84.60;;;;;;5035731;28;20044;-63
2022/03/14 11:15:50;;;;;;;5.53;3.33;;;15.80;84.50;;;;;;5038487;28;20487;-63
2022/03/14 11:18:21;;;;;;;5.85;3.40;;;15.70;84.30;;;;;;5032211;28;20403;-62
2022/03/14 11:20:47;;;;;;;6.75;3.60;;;;;;;;;;5052591;28;20053;-64
2022/03/14 11:23:16;;;;;;;6.70;3.42;;;15.90;84.50;;;;;;5033271;28;20045;-63
2022/03/14 11:25:45;;;;;;;5.50;3.35;;;15.70;84.30;;;;;;5035371;28;20049;-63
2022/03/14 11:28:16;;;;;;;7.18;3.83;;;15.80;84.30;;;;;;5035291;28;20034;-62
2022/03/14 11:30:44;;;;;;;7.45;3.38;;;15.70;84.50;;;;;;5035392;28;20037;-62
2022/03/14 11:33:11;;;;;;;5.75;3.38;;;15.90;84.30;;;;;;5034214;28;20491;-63
2022/03/14 11:35:37;;;;;;;5.88;3.10;;;15.90;84.40;;;;;;5035621;28;20419;-62
2022/03/14 11:38:03;;;;;;;6.30;3.20;;;15.80;83.80;;;;;;5031224;28;20092;-66
2022/03/14 11:40:29;;;;;;;5.28;3.28;;;15.90;84.10;;;;;;5032589;28;20080;-64
2022/03/14 11:42:55;;;;;;;5.13;2.97;;;15.90;84.00;;;;;;5033504;28;20053;-65
2022/03/14 11:45:21;;;;;;;6.13;2.83;;;15.90;84.20;;;;;;5034999;28;20092;-65
2022/03/14 11:47:47;;;;;;;5.07;2.83;;;15.90;83.80;;;;;;5034259;28;20084;-64
2022/03/14 11:50:14;;;;;;;6.60;3.38;;;16.10;83.80;;;;;;5034343;28;20129;-62
2022/03/14 11:52:41;;;;;;;6.43;3.38;;;16.10;83.90;;;;;;5033965;28;20167;-62
2022/03/14 11:55:22;;;;;;;6.30;3.65;;;16.00;84.10;;;;;;5030654;28;20050;-64
2022/03/14 11:57:48;;;;;;;5.43;3.22;;;16.00;83.60;;;;;;5015548;28;20045;-62
2022/03/14 12:00:31;;;;;;;6.97;3.30;;;15.90;79.40;;;;;;5021266;28;20564;-65
2022/03/14 12:03:01;;;;;;;5.85;3.13;;;15.70;83.30;;;;;;5032128;28;20144;-64
2022/03/14 12:05:33;;;;;;;6.53;3.42;;;16.20;83.50;;;;;;5035094;28;20098;-64
2022/03/14 12:07:59;;;;;;;7.57;3.45;;;16.10;83.70;;;;;;5034947;28;20042;-66
2022/03/14 12:10:28;;;;;;;5.95;3.40;;;16.00;83.50;;;;;;5034915;28;20033;-66
2022/03/14 12:12:54;;;;;;;7.07;3.63;;;16.00;83.30;;;;;;5030233;28;20045;-64
2022/03/14 12:15:41;;;;;;;7.65;3.50;;;16.20;79.60;;;;;;5033771;28;20045;-63
2022/03/14 12:18:26;;;;;;;7.25;3.97;;;16.30;83.50;;;;;;5029064;28;20042;-71
2022/03/14 12:20:52;;;;;;;7.07;3.50;;;16.00;83.40;;;;;;5033549;28;20060;-64
2022/03/14 12:23:32;;;;;;;6.50;3.60;;;16.10;83.50;;;;;;5034994;28;20064;-69
2022/03/14 12:26:24;;;;;;;7.97;3.50;;;16.20;80.90;;;;;;5034421;28;20099;-65
2022/03/14 12:28:52;;;;;;;8.27;3.80;;;16.20;82.60;;;;;;5029032;28;20054;-66
2022/03/14 12:31:18;;;;;;;8.98;4.22;;;16.00;83.40;;;;;;5022954;28;20037;-61
2022/03/14 12:33:45;;;;;;;7.25;3.78;;;16.00;83.30;;;;;;5030366;28;20041;-61
2022/03/14 12:36:23;;;;;;;8.05;3.72;;;16.10;83.60;;;;;;5026848;28;20075;-61
2022/03/14 12:39:09;;;;;;;7.90;4.07;;;16.00;79.40;;;;;;5014602;28;20129;-61
2022/03/14 12:41:36;;;;;;;9.95;4.07;;;16.10;83.90;;;;;;5023503;28;20049;-61
2022/03/14 12:44:08;;;;;;;12.27;4.35;;;16.00;81.20;;;;;;5013124;28;20100;-62
2022/03/14 12:46:34;;;;;;;8.65;4.13;;;;;;;;;;5017353;28;20503;-68
2022/03/14 12:49:00;;;;;;;7.72;4.00;;;16.10;81.30;;;;;;5032255;28;20128;-66
2022/03/14 12:51:27;;;;;;;9.00;4.25;;;16.00;79.70;;;;;;5033093;28;20132;-66
2022/03/14 12:53:57;;;;;;;7.65;4.30;;;15.90;83.60;;;;;;5033985;28;20103;-64
2022/03/14 12:56:24;;;;;;;9.43;4.07;;;15.80;83.50;;;;;;5033967;28;20562;-68